Terminal Aerodrome Forecast
Issued by NWS

Home | Current Version | Previous Version | Graphics & Text | Print | Product List | Glossary On
Versions: 1 2 3 4 5 6 7 8 9 10 11 12 13
563
FTUS43 KICT 190520
TAFHUT
TAF
KHUT 190520Z 1906/2006 01006KT P6SM SKC
     FM191500 01010KT P6SM SKC
     FM192100 06007KT P6SM SKC
     FM200400 11007KT P6SM SKC=

USA.gov is the U.S. government's official web portal to all federal, state and local government web resources and services.